Time;durP1;ratioP1;P1;durP2;ratioP2;P2;SDS_P1;SDS_P2;PMS_P1;PMS_P2;Temp;Humidity;BMP_temperature;BMP_pressure;BME280_temperature;BME280_humidity;BME280_pressure;Samples;Min_cycle;Max_cycle;Signal;HPM_P1;HPM_P2
2022/12/23 00:00:06;;;;;;;1.13;0.47;;;9.20;99.90;;;;;;5047521;28;20480;-69
2022/12/23 00:02:31;;;;;;;3.70;0.77;;;9.20;99.90;;;;;;5052087;28;20157;-68
2022/12/23 00:04:57;;;;;;;4.60;0.63;;;9.10;99.90;;;;;;5052810;28;20100;-70
2022/12/23 00:07:23;;;;;;;2.78;0.88;;;9.10;99.90;;;;;;5052151;28;20021;-69
2022/12/23 00:09:48;;;;;;;4.20;0.60;;;9.10;99.90;;;;;;5052100;28;20122;-71
2022/12/23 00:15:04;;;;;;;3.08;0.60;;;9.10;99.90;;;;;;5045985;28;20040;-68
2022/12/23 00:17:30;;;;;;;2.88;0.52;;;9.20;99.90;;;;;;5051437;28;20029;-68
2022/12/23 00:19:56;;;;;;;2.00;0.73;;;9.20;99.90;;;;;;5051614;28;20269;-69
2022/12/23 00:23:03;;;;;;;3.33;0.68;;;9.20;99.90;;;;;;5052070;28;20056;-69
2022/12/23 00:25:08;;;;;;;3.88;0.65;;;9.30;99.90;;;;;;5051715;28;20029;-69
2022/12/23 00:27:33;;;;;;;2.50;0.57;;;9.30;99.90;;;;;;5051628;28;20485;-69
2022/12/23 00:29:59;;;;;;;2.30;0.68;;;9.30;99.90;;;;;;5051210;28;20056;-68
2022/12/23 00:32:24;;;;;;;3.83;0.70;;;9.30;99.90;;;;;;5051666;28;20121;-68
2022/12/23 00:34:50;;;;;;;2.58;0.70;;;9.40;99.90;;;;;;5051903;28;20026;-71
2022/12/23 00:37:15;;;;;;;1.17;0.50;;;9.30;99.90;;;;;;5060777;28;20024;-68
2022/12/23 00:42:58;;;;;;;2.20;0.50;;;9.40;99.90;;;;;;5044162;28;20155;-69
2022/12/23 00:45:17;;;;;;;1.77;0.63;;;9.40;99.90;;;;;;5047742;28;20037;-68
2022/12/23 00:50:33;;;;;;;2.00;0.52;;;9.40;99.90;;;;;;5052299;28;20044;-69
2022/12/23 00:52:59;;;;;;;1.00;0.43;;;9.50;99.90;;;;;;5050682;28;20547;-68
2022/12/23 00:55:25;;;;;;;0.52;0.28;;;9.50;99.90;;;;;;5048146;28;20024;-71
2022/12/23 00:57:50;;;;;;;0.95;0.50;;;9.50;99.90;;;;;;5040892;28;20029;-70
2022/12/23 01:00:17;;;;;;;1.90;0.35;;;9.60;99.90;;;;;;5051514;28;20043;-69
2022/12/23 01:05:36;;;;;;;1.00;0.40;;;9.70;99.90;;;;;;5051660;28;20071;-68
2022/12/23 01:08:10;;;;;;;1.58;0.65;;;9.80;99.90;;;;;;5050610;28;20035;-67
2022/12/23 01:10:37;;;;;;;0.98;0.22;;;9.80;99.90;;;;;;5052141;28;20119;-68
2022/12/23 01:13:03;;;;;;;3.55;0.57;;;9.90;99.90;;;;;;5050632;28;20021;-68
2022/12/23 01:15:29;;;;;;;0.70;0.30;;;10.00;99.90;;;;;;5039637;28;20497;-68
2022/12/23 01:17:55;;;;;;;0.52;0.25;;;10.10;99.90;;;;;;5050551;28;20025;-69
2022/12/23 01:20:21;;;;;;;0.40;0.40;;;10.10;99.90;;;;;;5051193;28;20033;-69
2022/12/23 01:22:46;;;;;;;1.08;0.30;;;10.10;99.90;;;;;;5051491;28;20033;-68
2022/12/23 01:25:12;;;;;;;1.55;0.40;;;10.10;99.90;;;;;;5050451;28;20816;-68
2022/12/23 01:27:38;;;;;;;1.73;0.10;;;10.10;99.90;;;;;;5051297;28;20147;-69
2022/12/23 01:30:04;;;;;;;1.60;0.20;;;10.20;99.90;;;;;;5050607;28;20052;-69
2022/12/23 01:32:30;;;;;;;1.23;0.17;;;10.20;99.90;;;;;;5035241;28;20419;-69
2022/12/23 01:34:55;;;;;;;0.98;0.30;;;10.20;99.90;;;;;;5051586;28;20025;-69
2022/12/23 01:37:21;;;;;;;2.67;0.50;;;10.30;99.90;;;;;;5059970;28;20029;-69
2022/12/23 01:39:47;;;;;;;0.47;0.30;;;10.30;99.90;;;;;;5051285;28;20036;-69
2022/12/23 01:45:16;;;;;;;0.30;0.10;;;10.40;99.90;;;;;;5050406;28;20040;-69
2022/12/23 01:47:51;;;;;;;0.30;0.20;;;10.40;99.90;;;;;;5050897;28;20100;-69
2022/12/23 01:50:23;;;;;;;0.45;0.20;;;10.50;99.90;;;;;;5042117;28;20037;-69
2022/12/23 01:53:18;;;;;;;0.68;0.17;;;10.50;99.90;;;;;;5049751;28;20053;-69
2022/12/23 01:55:58;;;;;;;0.90;0.25;;;10.60;99.90;;;;;;5050839;28;20459;-69
2022/12/23 01:58:36;;;;;;;0.35;0.20;;;10.70;99.90;;;;;;5049963;28;20040;-69
2022/12/23 02:03:49;;;;;;;0.65;0.20;;;10.80;99.90;;;;;;5050003;28;20844;-69
2022/12/23 02:09:18;;;;;;;1.05;0.13;;;10.80;99.90;;;;;;5038881;28;20108;-69
2022/12/23 02:11:52;;;;;;;0.20;0.20;;;10.80;99.90;;;;;;5049266;28;20052;-69
2022/12/23 02:17:56;;;;;;;0.20;0.20;;;10.90;99.90;;;;;;5038745;28;20036;-69
2022/12/23 02:20:40;;;;;;;;;;;11.00;99.90;;;;;;5050995;28;20029;-69
2022/12/23 02:23:16;;;;;;;0.30;0.30;;;11.00;99.90;;;;;;5048953;28;19913;-69
2022/12/23 02:26:06;;;;;;;0.57;0.10;;;11.10;99.90;;;;;;5041999;28;20469;-68
2022/12/23 02:28:46;;;;;;;0.43;0.20;;;11.10;99.90;;;;;;5048766;28;20053;-68
2022/12/23 02:31:35;;;;;;;2.38;0.15;;;11.00;99.90;;;;;;5044008;28;20033;-69
2022/12/23 02:34:15;;;;;;;0.88;0.20;;;11.00;99.90;;;;;;5007410;28;20069;-68
2022/12/23 02:37:14;;;;;;;0.30;0.22;;;11.10;99.90;;;;;;5060051;28;20025;-68
2022/12/23 02:40:07;;;;;;;0.47;0.25;;;11.10;99.90;;;;;;5046941;28;20045;-68
2022/12/23 02:42:45;;;;;;;2.25;0.50;;;11.10;99.90;;;;;;5045188;28;20040;-68
2022/12/23 02:45:17;;;;;;;1.58;0.20;;;11.00;99.90;;;;;;5038443;28;20021;-68
2022/12/23 02:47:58;;;;;;;0.73;0.10;;;10.90;99.90;;;;;;5049802;28;20523;-68
2022/12/23 02:50:30;;;;;;;0.25;0.10;;;10.80;99.90;;;;;;5050216;28;20028;-69
2022/12/23 02:53:00;;;;;;;1.55;0.20;;;10.80;99.90;;;;;;5048680;28;20040;-69
2022/12/23 02:55:28;;;;;;;;;;;10.70;99.90;;;;;;5047185;28;20021;-69
2022/12/23 02:57:56;;;;;;;0.28;0.10;;;10.70;99.90;;;;;;5048997;28;20014;-70
2022/12/23 03:00:22;;;;;;;0.98;0.20;;;10.60;99.90;;;;;;5050133;28;20123;-69
2022/12/23 03:02:48;;;;;;;0.65;0.10;;;10.60;99.90;;;;;;5049421;28;20024;-69
2022/12/23 03:05:26;;;;;;;0.17;0.17;;;10.50;99.90;;;;;;5031826;28;20025;-69
2022/12/23 03:07:58;;;;;;;1.17;0.30;;;10.50;99.90;;;;;;5049201;28;20382;-71
2022/12/23 03:11:02;;;;;;;1.00;0.20;;;10.40;99.90;;;;;;5048885;28;20044;-69
2022/12/23 03:13:44;;;;;;;1.65;0.10;;;10.40;99.90;;;;;;5049595;28;20108;-69
2022/12/23 03:16:23;;;;;;;2.15;0.30;;;10.30;99.90;;;;;;5049818;28;20049;-69
2022/12/23 03:18:55;;;;;;;0.35;0.10;;;10.30;99.90;;;;;;5049753;28;20100;-69
2022/12/23 03:21:32;;;;;;;0.52;0.20;;;10.30;99.90;;;;;;5050431;28;20040;-69
2022/12/23 03:24:14;;;;;;;0.63;0.20;;;10.30;99.90;;;;;;5049681;28;20035;-69
2022/12/23 03:26:50;;;;;;;2.88;0.30;;;10.20;99.90;;;;;;5038274;28;20029;-69
2022/12/23 03:29:27;;;;;;;1.15;0.20;;;10.30;99.90;;;;;;5049613;28;20054;-69
2022/12/23 03:31:56;;;;;;;1.65;0.10;;;10.20;99.90;;;;;;5049551;28;20104;-71
2022/12/23 03:34:27;;;;;;;0.20;0.20;;;10.30;99.90;;;;;;5040379;28;20052;-68
2022/12/23 03:36:56;;;;;;;0.20;0.20;;;10.20;99.90;;;;;;5059782;28;20493;-71
2022/12/23 03:39:28;;;;;;;0.73;0.20;;;10.30;99.90;;;;;;5053353;28;20489;-69
2022/12/23 03:42:03;;;;;;;0.40;0.20;;;10.30;99.90;;;;;;5052596;28;20116;-71
2022/12/23 03:44:34;;;;;;;0.10;0.10;;;10.30;99.90;;;;;;5053294;28;20083;-69
2022/12/23 03:47:06;;;;;;;1.23;0.10;;;10.20;99.90;;;;;;5052585;28;20374;-69
2022/12/23 03:49:44;;;;;;;0.38;0.15;;;10.30;99.90;;;;;;5051723;28;20064;-69
2022/12/23 03:52:14;;;;;;;0.20;0.20;;;10.30;99.90;;;;;;5037121;28;20025;-70
2022/12/23 03:54:54;;;;;;;0.28;0.20;;;10.30;99.90;;;;;;5047712;28;20060;-75
2022/12/23 03:57:21;;;;;;;;;;;10.40;99.90;;;;;;5051001;28;20481;-70
2022/12/23 03:59:52;;;;;;;2.72;0.20;;;10.30;99.90;;;;;;5047242;28;19935;-69
2022/12/23 04:02:25;;;;;;;0.57;0.28;;;10.30;99.90;;;;;;5051805;28;20052;-69
2022/12/23 04:05:10;;;;;;;0.98;0.17;;;10.30;99.90;;;;;;5052676;28;20040;-72
2022/12/23 04:07:38;;;;;;;1.05;0.17;;;10.20;99.90;;;;;;5052169;28;20364;-69
2022/12/23 04:10:05;;;;;;;0.25;0.20;;;10.20;99.90;;;;;;5045239;28;20096;-69
2022/12/23 04:12:31;;;;;;;0.57;0.20;;;10.20;99.90;;;;;;5052257;28;20022;-69
2022/12/23 04:14:56;;;;;;;1.52;0.47;;;10.10;99.90;;;;;;5046236;28;20028;-69
2022/12/23 04:17:22;;;;;;;0.82;0.40;;;10.00;99.90;;;;;;5043600;28;20497;-70
2022/12/23 04:19:48;;;;;;;0.85;0.32;;;10.10;99.90;;;;;;5052232;28;20051;-69
2022/12/23 04:22:15;;;;;;;0.32;0.20;;;10.00;99.90;;;;;;5051541;28;20021;-69
2022/12/23 04:24:41;;;;;;;1.55;0.60;;;10.00;99.90;;;;;;5052863;28;20021;-69
2022/12/23 04:27:10;;;;;;;3.17;0.90;;;10.00;99.90;;;;;;5050594;28;20025;-69
2022/12/23 04:29:36;;;;;;;0.50;0.47;;;9.90;99.90;;;;;;5052088;28;20080;-69
2022/12/23 04:32:03;;;;;;;0.50;0.47;;;9.90;99.90;;;;;;5050803;28;20087;-68
2022/12/23 04:34:29;;;;;;;1.45;0.20;;;9.80;99.90;;;;;;5052130;28;20037;-69
2022/12/23 04:36:55;;;;;;;1.25;0.40;;;9.80;99.90;;;;;;5061863;28;20025;-71
2022/12/23 04:39:20;;;;;;;0.50;0.32;;;9.80;99.90;;;;;;5052426;28;20033;-70
2022/12/23 04:41:47;;;;;;;0.85;0.30;;;9.80;99.90;;;;;;5052094;28;20108;-69
2022/12/23 04:44:13;;;;;;;0.30;0.30;;;9.80;99.90;;;;;;5050942;28;20025;-69
2022/12/23 04:46:38;;;;;;;0.70;0.20;;;9.80;99.90;;;;;;5052023;28;20024;-69
2022/12/23 04:49:04;;;;;;;2.25;0.35;;;9.80;99.90;;;;;;5043616;28;20057;-69
2022/12/23 04:51:29;;;;;;;0.20;0.20;;;9.90;99.90;;;;;;5044501;28;20061;-69
2022/12/23 04:53:55;;;;;;;1.85;0.45;;;9.90;99.90;;;;;;5050238;28;20040;-69
2022/12/23 04:56:20;;;;;;;0.70;0.40;;;10.00;99.90;;;;;;5051722;28;20029;-69
2022/12/23 04:58:46;;;;;;;1.10;0.82;;;10.00;99.90;;;;;;5051756;28;20114;-69
2022/12/23 05:01:12;;;;;;;0.68;0.68;;;10.00;99.90;;;;;;5051635;28;20029;-69
2022/12/23 05:03:38;;;;;;;0.80;0.50;;;10.00;99.90;;;;;;5051612;28;20037;-69
2022/12/23 05:06:05;;;;;;;2.22;1.27;;;10.00;99.90;;;;;;5051062;28;20363;-68
2022/12/23 05:08:30;;;;;;;1.55;1.13;;;10.00;99.90;;;;;;5051852;28;20017;-68
2022/12/23 05:10:56;;;;;;;1.98;1.35;;;10.00;99.90;;;;;;5041328;28;20082;-69
2022/12/23 05:13:22;;;;;;;2.80;1.02;;;9.90;99.90;;;;;;5033835;28;20455;-68
2022/12/23 05:15:49;;;;;;;1.83;1.02;;;9.90;99.90;;;;;;5052150;28;20032;-69
2022/12/23 05:18:15;;;;;;;1.17;0.90;;;9.90;99.90;;;;;;5051512;28;20025;-69
2022/12/23 05:20:41;;;;;;;0.95;0.50;;;9.90;99.90;;;;;;5050925;28;20057;-70
2022/12/23 05:23:07;;;;;;;0.73;0.50;;;9.90;99.90;;;;;;5050614;28;20044;-69
2022/12/23 05:25:37;;;;;;;0.70;0.50;;;9.90;99.90;;;;;;5052125;28;20532;-69
2022/12/23 05:28:04;;;;;;;0.68;0.30;;;9.90;99.90;;;;;;5033381;28;20034;-68
2022/12/23 05:30:30;;;;;;;0.93;0.60;;;10.10;99.90;;;;;;5045532;28;20044;-68
2022/12/23 05:32:57;;;;;;;0.63;0.40;;;10.10;99.90;;;;;;5045608;28;20037;-69
2022/12/23 05:35:24;;;;;;;0.52;0.20;;;10.10;99.90;;;;;;5046920;28;20028;-68
2022/12/23 05:37:51;;;;;;;0.65;0.43;;;10.20;99.90;;;;;;5049160;28;20025;-70
2022/12/23 05:40:16;;;;;;;1.60;0.70;;;10.20;99.90;;;;;;5050945;28;20104;-69
2022/12/23 05:42:42;;;;;;;2.30;1.00;;;10.30;99.90;;;;;;5050446;28;20108;-68
2022/12/23 05:45:08;;;;;;;1.30;0.60;;;10.30;99.90;;;;;;5044921;28;20130;-68
2022/12/23 05:47:34;;;;;;;1.27;0.70;;;10.20;99.90;;;;;;5049824;28;20029;-68
2022/12/23 05:49:59;;;;;;;1.23;0.43;;;10.20;99.90;;;;;;5049725;28;20076;-70
2022/12/23 05:52:25;;;;;;;1.33;0.40;;;10.20;99.90;;;;;;5050580;28;20032;-70
2022/12/23 05:54:50;;;;;;;1.70;0.82;;;10.20;99.90;;;;;;5050903;28;20067;-70
2022/12/23 05:57:16;;;;;;;0.50;0.40;;;10.20;99.90;;;;;;5049731;28;20029;-69
2022/12/23 05:59:42;;;;;;;1.15;0.30;;;10.20;99.90;;;;;;5051132;28;20394;-69
2022/12/23 06:02:07;;;;;;;0.15;0.15;;;10.20;99.90;;;;;;5048741;28;20382;-69
2022/12/23 06:04:33;;;;;;;0.47;0.20;;;10.20;99.90;;;;;;5050660;28;20033;-69
2022/12/23 06:06:59;;;;;;;0.20;0.20;;;10.20;99.90;;;;;;5049310;28;20033;-69
2022/12/23 06:09:24;;;;;;;0.38;0.38;;;10.20;99.90;;;;;;5050850;28;20029;-69
2022/12/23 06:11:50;;;;;;;0.73;0.50;;;10.20;99.90;;;;;;5050423;28;20428;-71
2022/12/23 06:14:16;;;;;;;0.40;0.40;;;10.10;99.90;;;;;;5050717;28;20060;-69
2022/12/23 06:16:41;;;;;;;0.75;0.45;;;10.10;99.90;;;;;;5050561;28;20447;-69
2022/12/23 06:19:07;;;;;;;1.20;0.50;;;10.10;99.90;;;;;;5049388;28;20526;-69
2022/12/23 06:21:32;;;;;;;1.20;0.47;;;10.10;99.90;;;;;;5050251;28;20029;-69
2022/12/23 06:23:58;;;;;;;2.67;0.60;;;10.10;99.90;;;;;;5049505;28;20021;-70
2022/12/23 06:26:24;;;;;;;2.65;1.08;;;10.10;99.90;;;;;;5050665;28;20032;-69
2022/12/23 06:28:50;;;;;;;4.53;1.95;;;10.10;99.90;;;;;;5049330;28;20168;-70
2022/12/23 06:31:15;;;;;;;3.03;1.63;;;10.00;99.90;;;;;;5038311;28;20037;-69
2022/12/23 06:33:41;;;;;;;2.70;1.60;;;10.00;99.90;;;;;;5037100;28;20025;-69
2022/12/23 06:36:07;;;;;;;5.03;2.42;;;10.00;99.90;;;;;;5060494;28;20033;-68
2022/12/23 06:38:33;;;;;;;4.25;2.30;;;10.00;99.90;;;;;;5050429;28;20036;-69
2022/12/23 06:40:58;;;;;;;2.22;1.52;;;10.00;99.90;;;;;;5049405;28;20696;-69
2022/12/23 06:43:24;;;;;;;1.60;1.23;;;9.90;99.90;;;;;;5050220;28;20100;-69
2022/12/23 06:45:49;;;;;;;2.20;1.77;;;9.90;99.90;;;;;;5050724;28;20107;-71
2022/12/23 06:48:16;;;;;;;1.88;1.35;;;9.90;99.90;;;;;;5039421;28;20462;-69
2022/12/23 06:50:42;;;;;;;3.28;1.40;;;9.90;99.90;;;;;;5050496;28;20033;-69
2022/12/23 06:53:08;;;;;;;1.85;1.05;;;9.90;99.90;;;;;;5049601;28;20029;-70
2022/12/23 06:55:34;;;;;;;1.33;1.00;;;9.90;99.90;;;;;;5050532;28;20501;-70
2022/12/23 06:58:00;;;;;;;1.80;1.10;;;9.90;99.90;;;;;;5049035;28;20041;-69
2022/12/23 07:00:26;;;;;;;1.75;1.10;;;9.90;99.90;;;;;;5050547;28;20040;-69
2022/12/23 07:02:54;;;;;;;5.75;1.80;;;9.90;99.90;;;;;;5049645;28;20029;-72
2022/12/23 07:05:20;;;;;;;4.20;2.10;;;9.80;99.90;;;;;;5037130;28;20401;-70
2022/12/23 07:07:45;;;;;;;5.70;1.63;;;9.90;99.90;;;;;;5035941;28;20025;-73
2022/12/23 07:10:11;;;;;;;4.78;1.55;;;9.80;99.90;;;;;;5029666;28;20034;-67
2022/12/23 07:12:37;;;;;;;3.83;1.35;;;9.80;99.90;;;;;;5045334;28;20060;-69
2022/12/23 07:15:04;;;;;;;3.33;1.55;;;9.80;99.90;;;;;;5046197;28;20045;-68
2022/12/23 07:17:30;;;;;;;2.65;1.50;;;9.80;99.90;;;;;;5049337;28;20080;-68
2022/12/23 07:19:55;;;;;;;3.22;1.92;;;9.90;99.90;;;;;;5052383;28;20478;-68
2022/12/23 07:22:21;;;;;;;2.10;1.73;;;9.90;99.90;;;;;;5053018;28;20021;-68
2022/12/23 07:24:46;;;;;;;2.45;2.20;;;9.90;99.90;;;;;;5051976;28;20029;-68
2022/12/23 07:27:12;;;;;;;1.77;1.60;;;9.90;99.90;;;;;;5051931;28;20032;-68
2022/12/23 07:29:38;;;;;;;2.83;1.80;;;9.90;99.90;;;;;;5051390;28;20132;-74
2022/12/23 07:32:03;;;;;;;1.80;1.58;;;9.90;99.90;;;;;;5052408;28;20021;-68
2022/12/23 07:34:29;;;;;;;6.28;2.10;;;9.90;99.90;;;;;;5053495;28;20462;-69
2022/12/23 07:36:55;;;;;;;2.33;1.90;;;9.90;99.90;;;;;;5059126;28;20096;-71
2022/12/23 07:39:20;;;;;;;2.08;1.88;;;9.90;99.90;;;;;;5052829;28;20025;-70
2022/12/23 07:41:46;;;;;;;2.63;2.10;;;9.90;99.90;;;;;;5051937;28;20061;-69
2022/12/23 07:44:12;;;;;;;2.63;2.40;;;9.90;99.90;;;;;;5051510;28;20092;-69
2022/12/23 07:46:38;;;;;;;2.28;2.10;;;10.00;99.90;;;;;;5053068;28;20121;-69
2022/12/23 07:49:04;;;;;;;4.88;2.90;;;10.00;99.90;;;;;;5050607;28;20025;-69
2022/12/23 07:51:30;;;;;;;4.78;2.72;;;10.00;99.90;;;;;;5053609;28;20025;-69
2022/12/23 07:53:56;;;;;;;5.07;2.83;;;10.00;99.90;;;;;;5031729;28;20083;-68
2022/12/23 07:56:21;;;;;;;6.32;2.55;;;10.00;99.90;;;;;;5052825;28;20017;-67
2022/12/23 07:58:51;;;;;;;3.05;2.60;;;10.10;99.90;;;;;;5053315;28;20484;-69
2022/12/23 08:01:18;;;;;;;3.53;2.50;;;10.10;99.90;;;;;;5050175;28;20045;-68
2022/12/23 08:03:44;;;;;;;4.22;2.40;;;10.10;99.90;;;;;;5047326;28;20044;-69
2022/12/23 08:06:12;;;;;;;3.33;2.75;;;10.10;99.90;;;;;;5051380;28;20458;-68
2022/12/23 08:08:39;;;;;;;2.97;2.17;;;10.10;99.90;;;;;;5051716;28;20072;-68
2022/12/23 08:11:07;;;;;;;2.70;1.92;;;10.10;99.90;;;;;;5051920;28;20024;-68
2022/12/23 08:13:35;;;;;;;2.95;2.30;;;10.10;99.90;;;;;;5051767;28;20496;-69
2022/12/23 08:16:02;;;;;;;2.88;2.10;;;10.10;99.90;;;;;;5052197;28;20036;-69
2022/12/23 08:18:32;;;;;;;2.13;1.75;;;10.10;99.90;;;;;;5051685;28;20033;-68
2022/12/23 08:21:14;;;;;;;2.42;1.98;;;10.10;99.90;;;;;;5048572;28;20033;-69
2022/12/23 08:23:40;;;;;;;2.45;1.77;;;10.10;99.90;;;;;;5051658;28;20029;-68
2022/12/23 08:26:11;;;;;;;2.28;2.08;;;10.10;99.90;;;;;;5052186;28;20071;-69
2022/12/23 08:28:38;;;;;;;3.10;1.70;;;10.20;99.90;;;;;;5046148;28;20136;-67
2022/12/23 08:31:10;;;;;;;1.05;1.00;;;10.10;99.90;;;;;;5032346;28;20065;-70
2022/12/23 08:33:37;;;;;;;1.73;1.10;;;10.20;99.90;;;;;;5031724;28;20033;-68
2022/12/23 08:36:05;;;;;;;0.90;0.90;;;10.20;99.90;;;;;;5040212;28;20036;-68
2022/12/23 08:38:30;;;;;;;1.75;1.02;;;10.20;99.90;;;;;;5031760;28;20021;-68
2022/12/23 08:40:56;;;;;;;1.88;1.13;;;10.20;99.90;;;;;;5031861;28;20387;-68
2022/12/23 08:43:21;;;;;;;2.95;1.33;;;10.30;99.90;;;;;;5032072;28;20033;-68
2022/12/23 08:45:47;;;;;;;2.00;1.02;;;10.30;99.90;;;;;;5031969;28;20455;-69
2022/12/23 08:48:13;;;;;;;2.25;1.27;;;10.20;99.90;;;;;;5031189;28;20024;-68
2022/12/23 08:50:41;;;;;;;4.57;1.60;;;10.30;99.90;;;;;;5032327;28;20033;-69
2022/12/23 08:53:06;;;;;;;3.25;1.60;;;10.20;99.90;;;;;;5031184;28;20025;-69
2022/12/23 08:55:44;;;;;;;3.28;1.60;;;10.20;99.90;;;;;;5031574;28;20041;-69
2022/12/23 08:58:11;;;;;;;1.80;1.25;;;10.30;99.90;;;;;;5013697;28;20100;-68
2022/12/23 09:00:38;;;;;;;1.42;0.93;;;10.20;99.90;;;;;;5031892;28;20037;-68
2022/12/23 09:03:04;;;;;;;1.27;1.00;;;10.30;99.90;;;;;;5030870;28;20459;-69
2022/12/23 09:05:29;;;;;;;2.17;1.33;;;10.30;99.90;;;;;;5031707;28;20017;-69
2022/12/23 09:07:55;;;;;;;1.63;1.08;;;10.30;99.90;;;;;;5030510;28;20053;-69
2022/12/23 09:10:22;;;;;;;2.15;1.50;;;10.30;99.90;;;;;;5031907;28;20363;-69
2022/12/23 09:12:47;;;;;;;4.88;1.52;;;10.40;99.90;;;;;;5030874;28;20159;-68
2022/12/23 09:15:13;;;;;;;1.30;1.20;;;10.40;99.90;;;;;;5030407;28;20852;-69
2022/12/23 09:17:39;;;;;;;2.15;1.30;;;10.40;99.90;;;;;;5029524;28;20025;-68
2022/12/23 09:20:05;;;;;;;2.90;1.00;;;10.40;99.90;;;;;;5030671;28;20125;-68
2022/12/23 09:22:34;;;;;;;3.25;1.17;;;10.40;99.90;;;;;;5030981;28;20029;-69
2022/12/23 09:24:59;;;;;;;0.75;0.75;;;10.50;99.90;;;;;;5030908;28;20100;-70
2022/12/23 09:27:25;;;;;;;0.60;0.60;;;10.50;99.90;;;;;;5031228;28;20152;-69
2022/12/23 09:29:51;;;;;;;2.80;1.00;;;10.60;99.90;;;;;;5046590;28;20049;-69
2022/12/23 09:32:18;;;;;;;1.48;0.70;;;10.60;99.90;;;;;;5050558;28;20090;-68
2022/12/23 09:34:43;;;;;;;1.92;0.68;;;10.70;99.90;;;;;;5050921;28;20040;-68
2022/12/23 09:37:11;;;;;;;0.90;0.73;;;10.70;99.90;;;;;;5058015;28;20765;-68
2022/12/23 09:39:37;;;;;;;3.20;0.77;;;10.80;99.90;;;;;;5051091;28;20120;-67
2022/12/23 09:42:05;;;;;;;1.30;0.80;;;10.80;99.90;;;;;;5049889;28;20112;-68
2022/12/23 09:44:55;;;;;;;0.55;0.50;;;10.80;99.90;;;;;;5051112;28;20013;-69
2022/12/23 09:47:23;;;;;;;0.50;0.50;;;10.90;99.90;;;;;;5050944;28;20025;-68
2022/12/23 09:49:58;;;;;;;1.38;0.90;;;10.90;99.90;;;;;;5051320;28;20028;-69
2022/12/23 09:52:40;;;;;;;1.00;0.50;;;10.90;99.90;;;;;;5050762;28;20417;-68
2022/12/23 09:55:09;;;;;;;1.33;0.65;;;11.00;99.90;;;;;;5049143;28;20053;-69
2022/12/23 09:57:46;;;;;;;1.02;0.80;;;11.00;99.90;;;;;;5050760;28;20025;-69
2022/12/23 10:00:17;;;;;;;2.70;1.00;;;11.00;99.90;;;;;;5049157;28;20071;-69
2022/12/23 10:02:51;;;;;;;1.20;1.10;;;11.10;99.90;;;;;;5050385;28;20036;-68
2022/12/23 10:05:44;;;;;;;3.25;0.90;;;11.10;99.90;;;;;;5050829;28;20779;-68
2022/12/23 10:08:24;;;;;;;1.52;0.98;;;11.10;99.90;;;;;;5049643;28;20021;-68
2022/12/23 10:11:00;;;;;;;0.77;0.77;;;11.10;99.90;;;;;;5050984;28;20021;-68
2022/12/23 10:13:38;;;;;;;4.28;1.38;;;11.10;99.90;;;;;;5050712;28;20258;-69
2022/12/23 10:16:08;;;;;;;2.47;1.10;;;11.10;99.90;;;;;;5050013;28;20029;-69
2022/12/23 10:18:33;;;;;;;;;;;11.20;99.90;;;;;;5050437;28;20033;-67
2022/12/23 10:21:04;;;;;;;1.85;0.73;;;11.10;99.90;;;;;;5046780;28;19931;-69
2022/12/23 10:23:38;;;;;;;2.38;0.70;;;11.10;99.90;;;;;;5050484;28;20021;-67
2022/12/23 10:26:17;;;;;;;1.13;0.50;;;11.10;99.90;;;;;;5049436;28;20029;-74
2022/12/23 10:28:43;;;;;;;1.05;0.60;;;11.20;99.90;;;;;;5049387;28;20057;-65
2022/12/23 10:31:16;;;;;;;1.17;0.60;;;11.30;99.90;;;;;;5049612;28;20116;-70
2022/12/23 10:34:06;;;;;;;1.00;0.40;;;11.30;99.90;;;;;;5050220;28;20029;-69
2022/12/23 10:36:46;;;;;;;0.75;0.50;;;11.30;99.90;;;;;;5052282;28;20360;-68
2022/12/23 10:39:23;;;;;;;0.75;0.60;;;11.30;99.90;;;;;;5049078;28;20025;-67
2022/12/23 10:42:07;;;;;;;0.70;0.40;;;11.40;99.90;;;;;;5050102;28;20045;-66
2022/12/23 10:44:39;;;;;;;0.52;0.43;;;11.40;99.90;;;;;;5049860;28;20138;-67
2022/12/23 10:47:32;;;;;;;0.80;0.40;;;11.50;99.90;;;;;;5049918;28;20025;-67
2022/12/23 10:50:16;;;;;;;0.63;0.60;;;11.60;99.90;;;;;;5053646;28;20037;-67
2022/12/23 10:52:45;;;;;;;0.90;0.57;;;11.60;99.90;;;;;;5053800;28;20432;-67
2022/12/23 10:55:34;;;;;;;3.75;0.73;;;11.70;99.90;;;;;;5052788;28;20017;-67
2022/12/23 10:58:08;;;;;;;1.05;0.90;;;11.70;99.90;;;;;;5052626;28;20025;-67
2022/12/23 11:00:37;;;;;;;1.00;0.90;;;11.70;99.90;;;;;;5054395;28;20043;-68
2022/12/23 11:03:12;;;;;;;1.52;1.05;;;11.70;99.90;;;;;;5058217;28;20035;-67
2022/12/23 11:05:38;;;;;;;3.33;1.70;;;11.70;99.90;;;;;;5055890;28;20025;-67
2022/12/23 11:08:04;;;;;;;1.95;1.45;;;11.60;99.90;;;;;;5052445;28;20037;-67
2022/12/23 11:10:32;;;;;;;3.17;1.25;;;11.70;99.90;;;;;;5053990;28;20044;-67
2022/12/23 11:12:59;;;;;;;2.58;1.70;;;11.60;99.90;;;;;;5052395;28;20025;-67
2022/12/23 11:15:34;;;;;;;2.15;1.55;;;11.60;99.90;;;;;;5053992;28;20021;-67
2022/12/23 11:18:12;;;;;;;3.38;2.45;;;11.50;99.90;;;;;;5052493;28;20029;-67
2022/12/23 11:20:40;;;;;;;3.15;1.80;;;11.50;99.90;;;;;;5043168;28;20124;-67
2022/12/23 11:23:23;;;;;;;3.03;2.15;;;11.50;99.90;;;;;;5045957;28;20163;-67
2022/12/23 11:25:59;;;;;;;3.63;2.47;;;11.50;99.90;;;;;;5047771;28;20021;-67
2022/12/23 11:28:25;;;;;;;3.78;2.00;;;11.40;99.90;;;;;;5052403;28;20044;-69
2022/12/23 11:30:57;;;;;;;1.35;1.15;;;11.50;99.90;;;;;;5053489;28;20057;-67
2022/12/23 11:33:36;;;;;;;3.42;1.73;;;11.50;99.90;;;;;;5053351;28;20021;-67
2022/12/23 11:36:16;;;;;;;2.90;1.35;;;11.50;99.90;;;;;;5056233;28;20020;-66
2022/12/23 11:38:57;;;;;;;1.30;1.00;;;11.50;99.90;;;;;;5049280;28;20033;-66
2022/12/23 11:41:27;;;;;;;1.90;1.00;;;11.60;99.90;;;;;;5050431;28;20037;-70
2022/12/23 11:44:07;;;;;;;2.03;1.13;;;11.60;99.90;;;;;;5043350;28;20104;-69
2022/12/23 11:46:34;;;;;;;1.27;1.17;;;11.60;99.90;;;;;;5046000;28;20017;-67
2022/12/23 11:49:20;;;;;;;2.97;1.13;;;11.70;99.90;;;;;;5044945;28;20494;-68
2022/12/23 11:52:11;;;;;;;1.75;1.23;;;11.70;99.90;;;;;;5049708;28;20025;-67
2022/12/23 11:54:37;;;;;;;2.17;1.00;;;11.80;99.90;;;;;;5050759;28;20050;-67
2022/12/23 11:57:07;;;;;;;2.78;0.88;;;11.80;99.90;;;;;;5052138;28;20036;-67
2022/12/23 11:59:39;;;;;;;1.75;0.60;;;11.80;99.90;;;;;;5052173;28;20052;-67
2022/12/23 12:02:31;;;;;;;0.77;0.50;;;11.90;99.90;;;;;;5045952;28;20044;-68
2022/12/23 12:05:15;;;;;;;2.05;0.95;;;11.90;99.90;;;;;;5049688;28;20032;-66
2022/12/23 12:07:42;;;;;;;2.92;1.00;;;11.90;99.90;;;;;;5052308;28;20021;-66
2022/12/23 12:10:40;;;;;;;2.25;1.33;;;11.90;99.90;;;;;;5052136;28;20163;-66
2022/12/23 12:13:41;;;;;;;2.05;1.10;;;11.90;99.90;;;;;;5047077;28;20045;-66
2022/12/23 12:16:12;;;;;;;1.88;1.10;;;11.90;99.90;;;;;;5047805;28;21066;-67
2022/12/23 12:18:45;;;;;;;1.35;1.25;;;11.90;99.90;;;;;;5053119;28;20029;-66
2022/12/23 12:21:26;;;;;;;2.00;1.25;;;12.00;99.90;;;;;;5035186;28;20040;-66
2022/12/23 12:23:57;;;;;;;4.50;2.40;;;11.90;99.90;;;;;;5015364;28;20041;-75
2022/12/23 12:26:32;;;;;;;3.60;2.00;;;11.90;99.90;;;;;;5042858;28;20029;-73
2022/12/23 12:29:19;;;;;;;5.60;2.70;;;11.90;99.90;;;;;;5051695;28;20041;-76
2022/12/23 12:31:48;;;;;;;2.78;2.08;;;11.90;99.90;;;;;;5048319;28;20043;-72
2022/12/23 12:34:38;;;;;;;2.53;1.98;;;11.90;99.90;;;;;;5051325;28;20934;-70
2022/12/23 12:37:09;;;;;;;;;;;11.90;99.90;;;;;;5063328;28;20072;-68
2022/12/23 12:39:44;;;;;;;2.15;1.20;;;11.90;99.90;;;;;;5051966;28;19913;-67
2022/12/23 12:42:23;;;;;;;1.52;1.00;;;11.90;99.90;;;;;;5045041;28;20060;-66
2022/12/23 12:45:15;;;;;;;2.20;1.00;;;11.90;99.90;;;;;;5049433;28;20020;-69
2022/12/23 12:48:00;;;;;;;2.85;0.82;;;11.90;99.90;;;;;;5051311;28;20029;-71
2022/12/23 12:50:31;;;;;;;1.92;1.23;;;11.90;99.90;;;;;;5052543;28;20033;-71
2022/12/23 12:53:09;;;;;;;2.60;1.08;;;11.90;99.90;;;;;;5050459;28;20367;-68
2022/12/23 12:55:41;;;;;;;3.10;2.00;;;12.00;99.90;;;;;;5052282;28;20079;-68
2022/12/23 12:58:17;;;;;;;2.67;1.80;;;12.00;99.90;;;;;;5050115;28;20056;-76
2022/12/23 13:00:53;;;;;;;3.55;1.40;;;12.10;99.90;;;;;;5048575;28;20029;-69
2022/12/23 13:03:33;;;;;;;2.45;1.20;;;12.10;99.90;;;;;;5051139;28;20108;-69
2022/12/23 13:06:23;;;;;;;2.20;1.20;;;12.10;99.90;;;;;;5050837;28;20029;-69
2022/12/23 13:09:15;;;;;;;3.25;1.42;;;12.10;99.90;;;;;;5045418;28;20453;-69
2022/12/23 13:11:53;;;;;;;2.72;1.42;;;12.10;99.90;;;;;;5054124;28;20044;-69
2022/12/23 13:14:32;;;;;;;2.17;1.77;;;12.20;99.90;;;;;;5056273;28;20040;-69
2022/12/23 13:17:15;;;;;;;2.38;1.50;;;12.20;99.90;;;;;;5050348;28;20039;-69
2022/12/23 13:20:11;;;;;;;2.28;1.30;;;12.20;99.90;;;;;;5049390;28;20033;-71
2022/12/23 13:24:20;;;;;;;3.60;1.77;;;12.20;99.90;;;;;;5060647;28;20422;-70
2022/12/23 13:26:45;;;;;;;;;;;12.20;99.90;;;;;;5061713;28;20202;-74
2022/12/23 13:29:26;;;;;;;2.28;1.23;;;12.30;99.90;;;;;;5053389;28;19908;-70
2022/12/23 13:32:00;;;;;;;2.33;1.20;;;12.30;99.90;;;;;;5061004;28;20028;-71
2022/12/23 13:34:39;;;;;;;5.05;2.80;;;12.30;99.90;;;;;;5066233;28;20033;-70